createdAt,value
2023-02-19T00:01:16.439Z,101909.53
2023-02-19T00:03:47.866Z,101913.13
2023-02-19T00:06:14.323Z,101910.50
2023-02-19T00:08:40.694Z,101913.06
2023-02-19T00:11:13.636Z,101920.06
2023-02-19T00:13:42.801Z,101922.69
2023-02-19T00:16:21.369Z,101921.00
2023-02-19T00:18:47.809Z,101925.31
2023-02-19T00:21:15.065Z,101920.13
2023-02-19T00:23:41.919Z,101925.38
2023-02-19T00:26:18.549Z,101921.84
2023-02-19T00:28:46.332Z,101930.63
2023-02-19T00:31:22.198Z,101935.03
2023-02-19T00:33:50.813Z,101933.31
2023-02-19T00:36:17.494Z,101923.66
2023-02-19T00:38:44.978Z,101931.53
2023-02-19T00:41:19.731Z,101929.84
2023-02-19T00:43:45.987Z,101942.09
2023-02-19T00:46:12.444Z,101935.94
2023-02-19T00:48:38.984Z,101932.50
2023-02-19T00:51:05.558Z,101943.94
2023-02-19T00:53:31.898Z,101941.25
2023-02-19T00:55:58.237Z,101928.97
2023-02-19T00:58:24.645Z,101934.22
2023-02-19T01:00:51.079Z,101930.69
2023-02-19T01:03:17.523Z,101935.13
2023-02-19T01:05:43.950Z,101948.25
2023-02-19T01:08:10.370Z,101948.25
2023-02-19T01:10:36.727Z,101948.25
2023-02-19T01:13:03.105Z,101951.81
2023-02-19T01:15:29.437Z,101954.44
2023-02-19T01:17:55.849Z,101952.72
2023-02-19T01:20:22.181Z,101967.59
2023-02-19T01:22:48.542Z,101972.00
2023-02-19T01:25:15.246Z,101965.03
2023-02-19T01:27:41.604Z,101965.03
2023-02-19T01:30:08.707Z,101958.06
2023-02-19T01:32:35.089Z,101967.78
2023-02-19T01:35:01.502Z,101973.03
2023-02-19T01:37:27.861Z,101962.53
2023-02-19T01:39:54.221Z,101973.94
2023-02-19T01:42:20.603Z,101972.16
2023-02-19T01:44:46.949Z,101967.78
2023-02-19T01:47:16.080Z,101969.59
2023-02-19T01:49:54.599Z,101967.88
2023-02-19T01:52:25.630Z,101968.84
2023-02-19T01:54:53.440Z,101972.41
2023-02-19T01:57:25.322Z,101975.13
2023-02-19T01:59:57.582Z,101977.69
2023-02-19T02:02:28.426Z,101973.31
2023-02-19T02:04:57.542Z,101964.69
2023-02-19T02:07:42.327Z,101974.28
2023-02-19T02:10:21.022Z,101961.25
2023-02-19T02:12:52.510Z,101976.16
2023-02-19T02:15:19.630Z,101976.16
2023-02-19T02:17:45.902Z,101975.31
2023-02-19T02:20:15.346Z,101973.59
2023-02-19T02:22:51.260Z,101979.69
2023-02-19T02:25:32.014Z,101974.56
2023-02-19T02:28:07.085Z,101973.69
2023-02-19T02:30:41.513Z,101980.78
2023-02-19T02:33:24.483Z,101986.88
2023-02-19T02:36:02.093Z,101981.69
2023-02-19T02:38:31.751Z,101982.59
2023-02-19T02:40:58.914Z,101987.03
2023-02-19T02:43:25.408Z,101992.34
2023-02-19T02:45:51.922Z,101987.97
2023-02-19T02:48:39.267Z,101993.22
2023-02-19T02:51:13.005Z,101995.84
2023-02-19T02:54:04.162Z,101997.59
2023-02-19T02:56:31.408Z,102002.84
2023-02-19T02:59:00.819Z,101999.38
2023-02-19T03:02:00.102Z,102000.28
2023-02-19T03:04:33.157Z,102001.13
2023-02-19T03:07:05.612Z,102000.22
2023-02-19T03:09:40.500Z,102007.25
2023-02-19T03:12:32.182Z,101999.44
2023-02-19T03:15:23.001Z,102015.16
2023-02-19T03:18:11.448Z,102007.28
2023-02-19T03:20:42.199Z,102009.91
2023-02-19T03:23:10.971Z,102009.91
2023-02-19T03:25:57.845Z,102015.16
2023-02-19T03:28:49.312Z,102013.31
2023-02-19T03:31:20.180Z,102023.06
2023-02-19T03:33:54.136Z,102023.13
2023-02-19T03:36:25.785Z,102020.56
2023-02-19T03:38:59.273Z,102025.81
2023-02-19T03:41:40.914Z,102028.44
2023-02-19T03:44:17.948Z,102026.66
2023-02-19T03:47:18.201Z,102031.06
2023-02-19T03:49:50.694Z,102037.19
2023-02-19T03:52:53.223Z,102035.47
2023-02-19T03:55:44.906Z,102036.34
2023-02-19T03:58:22.340Z,102040.78
2023-02-19T04:01:15.496Z,102045.19
2023-02-19T04:03:49.949Z,102062.72
2023-02-19T04:06:27.300Z,102053.91
2023-02-19T04:08:57.345Z,102055.75
2023-02-19T04:11:26.232Z,102063.63
2023-02-19T04:14:05.362Z,102066.31
2023-02-19T04:16:36.162Z,102067.13
2023-02-19T04:19:08.602Z,102067.22
2023-02-19T04:21:37.644Z,102079.50
2023-02-19T04:24:10.945Z,102077.78
2023-02-19T04:26:37.663Z,102078.66
2023-02-19T04:29:04.320Z,102081.28
2023-02-19T04:31:31.858Z,102084.72
2023-02-19T04:33:58.308Z,102091.78
2023-02-19T04:36:24.652Z,102093.50
2023-02-19T04:38:50.978Z,102086.53
2023-02-19T04:41:17.308Z,102100.47
2023-02-19T04:43:43.702Z,102104.88
2023-02-19T04:46:10.178Z,102117.03
2023-02-19T04:48:36.598Z,102113.59
2023-02-19T04:51:07.182Z,102114.44
2023-02-19T04:53:33.956Z,102129.38
2023-02-19T04:56:12.430Z,102120.59
2023-02-19T04:58:39.921Z,102142.44
2023-02-19T05:01:06.692Z,102138.03
2023-02-19T05:03:35.226Z,102140.66
2023-02-19T05:06:07.182Z,102136.34
2023-02-19T05:08:34.081Z,102139.88
2023-02-19T05:11:02.363Z,102138.97
2023-02-19T05:13:29.092Z,102142.53
2023-02-19T05:16:07.184Z,102153.03
2023-02-19T05:18:34.645Z,102153.94
2023-02-19T05:21:01.759Z,102153.94
2023-02-19T05:23:28.813Z,102162.66
2023-02-19T05:25:55.529Z,102157.47
2023-02-19T05:28:28.446Z,102158.28
2023-02-19T05:30:56.850Z,102170.47
2023-02-19T05:33:25.652Z,102175.69
2023-02-19T05:35:55.243Z,102174.03
2023-02-19T05:38:22.210Z,102164.44
2023-02-19T05:40:48.750Z,102174.91
2023-02-19T05:43:16.180Z,102177.63
2023-02-19T05:45:43.526Z,102175.00
2023-02-19T05:48:10.961Z,102174.19
2023-02-19T05:50:39.678Z,102182.00
2023-02-19T05:53:06.251Z,102172.38
2023-02-19T05:55:36.628Z,102170.69
2023-02-19T05:58:03.405Z,102179.34
2023-02-19T06:00:30.322Z,102181.16
2023-02-19T06:02:56.739Z,102191.66
2023-02-19T06:05:23.205Z,102193.47
2023-02-19T06:07:50.466Z,102185.59
2023-02-19T06:10:17.410Z,102190.00
2023-02-19T06:12:44.329Z,102190.00
2023-02-19T06:15:10.732Z,102203.22
2023-02-19T06:17:37.186Z,102203.28
2023-02-19T06:20:03.825Z,102210.25
2023-02-19T06:22:30.270Z,102219.88
2023-02-19T06:24:56.648Z,102227.72
2023-02-19T06:27:23.073Z,102219.03
2023-02-19T06:29:49.469Z,102234.63
2023-02-19T06:32:16.801Z,102242.66
2023-02-19T06:34:43.248Z,102249.72
2023-02-19T06:37:09.646Z,102249.72
2023-02-19T06:39:36.484Z,102243.63
2023-02-19T06:42:02.918Z,102248.88
2023-02-19T06:44:29.334Z,102250.59
2023-02-19T06:46:55.940Z,102254.09
2023-02-19T06:49:22.759Z,102257.53
2023-02-19T06:51:49.237Z,102254.94
2023-02-19T06:54:15.618Z,102258.47
2023-02-19T06:56:42.209Z,102260.28
2023-02-19T06:59:12.980Z,102262.09
2023-02-19T07:01:40.304Z,102262.22
2023-02-19T07:04:07.590Z,102265.75
2023-02-19T07:06:35.358Z,102275.31
2023-02-19T07:09:02.958Z,102283.34
2023-02-19T07:11:31.672Z,102284.19
2023-02-19T07:13:59.679Z,102289.44
2023-02-19T07:16:27.323Z,102290.38
2023-02-19T07:18:56.912Z,102299.81
2023-02-19T07:21:23.399Z,102299.91
2023-02-19T07:23:49.834Z,102309.47
2023-02-19T07:26:18.360Z,102312.03
2023-02-19T07:28:47.104Z,102318.16
2023-02-19T07:31:18.694Z,102328.63
2023-02-19T07:33:46.486Z,102315.53
2023-02-19T07:36:14.873Z,102322.50
2023-02-19T07:38:41.178Z,102337.34
2023-02-19T07:41:08.399Z,102335.56
2023-02-19T07:43:36.735Z,102336.41
2023-02-19T07:46:04.874Z,102324.13
2023-02-19T07:48:31.355Z,102337.28
2023-02-19T07:50:59.982Z,102335.56
2023-02-19T07:53:28.384Z,102340.78
2023-02-19T07:55:59.470Z,102350.34
2023-02-19T07:58:25.867Z,102351.22
2023-02-19T08:00:52.328Z,102351.22
2023-02-19T08:03:18.838Z,102351.22
2023-02-19T08:05:45.358Z,102354.69
2023-02-19T08:08:14.229Z,102364.28
2023-02-19T08:10:59.793Z,102365.13
2023-02-19T08:13:30.064Z,102365.06
2023-02-19T08:16:18.352Z,102372.09
2023-02-19T08:18:48.713Z,102380.88
2023-02-19T08:21:18.262Z,102383.47
2023-02-19T08:23:46.208Z,102387.03
2023-02-19T08:26:12.809Z,102393.19
2023-02-19T08:28:39.379Z,102396.78
2023-02-19T08:31:07.518Z,102404.59
2023-02-19T08:33:34.643Z,102410.78
2023-02-19T08:36:05.941Z,102405.59
2023-02-19T08:38:35.705Z,102412.59
2023-02-19T08:41:07.228Z,102415.25
2023-02-19T08:43:34.094Z,102418.69
2023-02-19T08:46:00.586Z,102418.66
2023-02-19T08:48:27.642Z,102415.13
2023-02-19T08:50:59.032Z,102428.19
2023-02-19T08:53:26.339Z,102417.63
2023-02-19T08:55:53.009Z,102421.97
2023-02-19T08:58:19.424Z,102422.81
2023-02-19T09:00:45.810Z,102421.13
2023-02-19T09:03:12.205Z,102422.00
2023-02-19T09:05:39.218Z,102425.44
2023-02-19T09:08:05.905Z,102421.13
2023-02-19T09:10:32.227Z,102417.56
2023-02-19T09:12:58.560Z,102431.50
2023-02-19T09:15:24.954Z,102417.50
2023-02-19T09:17:54.341Z,102440.19
2023-02-19T09:20:20.912Z,102448.88
2023-02-19T09:22:47.350Z,102446.22
2023-02-19T09:25:13.776Z,102443.59
2023-02-19T09:27:40.240Z,102448.72
2023-02-19T09:30:07.270Z,102453.88
2023-02-19T09:32:33.688Z,102463.53
2023-02-19T09:35:00.118Z,102482.78
2023-02-19T09:37:27.819Z,102483.69
2023-02-19T09:39:55.232Z,102488.94
2023-02-19T09:42:29.796Z,102496.91
2023-02-19T09:44:58.468Z,102498.53
2023-02-19T09:47:27.749Z,102506.34
2023-02-19T09:49:57.389Z,102513.47
2023-02-19T09:52:44.159Z,102514.41
2023-02-19T09:55:34.693Z,102511.06
2023-02-19T09:58:08.849Z,102522.44
2023-02-19T10:00:36.466Z,102529.41
2023-02-19T10:03:11.043Z,102526.03
2023-02-19T10:05:39.819Z,102538.41
2023-02-19T10:08:13.205Z,102544.53
2023-02-19T10:10:41.150Z,102563.72
2023-02-19T10:13:22.800Z,102571.75
2023-02-19T10:15:56.872Z,102568.31
2023-02-19T10:18:28.912Z,102580.66
2023-02-19T10:20:57.164Z,102584.19
2023-02-19T10:23:24.885Z,102586.84
2023-02-19T10:25:59.154Z,102593.94
2023-02-19T10:28:31.225Z,102599.97
2023-02-19T10:30:59.600Z,102608.75
2023-02-19T10:33:26.519Z,102604.38
2023-02-19T10:35:58.950Z,102611.38
2023-02-19T10:38:32.449Z,102614.13
2023-02-19T10:41:14.984Z,102608.75
2023-02-19T10:43:50.417Z,102613.25
2023-02-19T10:46:29.734Z,102614.13
2023-02-19T10:49:00.306Z,102617.59
2023-02-19T10:51:36.492Z,102618.47
2023-02-19T10:54:26.654Z,102623.81
2023-02-19T10:56:54.068Z,102611.56
2023-02-19T10:59:28.768Z,102617.59
2023-02-19T11:01:57.281Z,102607.84
2023-02-19T11:04:24.896Z,102600.13
2023-02-19T11:06:51.509Z,102593.16
2023-02-19T11:09:28.182Z,102590.41
2023-02-19T11:11:55.991Z,102608.69
2023-02-19T11:14:24.574Z,102609.72
2023-02-19T11:16:56.021Z,102614.00
2023-02-19T11:19:30.905Z,102623.63
2023-02-19T11:21:58.885Z,102632.59
2023-02-19T11:24:27.134Z,102623.06
2023-02-19T11:26:53.964Z,102625.69
2023-02-19T11:29:23.157Z,102629.94
2023-02-19T11:31:49.666Z,102620.25
2023-02-19T11:34:21.330Z,102622.97
2023-02-19T11:37:07.900Z,102626.44
2023-02-19T11:39:34.644Z,102630.09
2023-02-19T11:42:33.568Z,102634.63
2023-02-19T11:45:09.093Z,102641.44
2023-02-19T11:48:02.977Z,102631.97
2023-02-19T11:50:48.320Z,102632.97
2023-02-19T11:53:24.840Z,102640.97
2023-02-19T11:56:27.925Z,102634.78
2023-02-19T11:59:05.729Z,102621.66
2023-02-19T12:01:44.092Z,102627.69
2023-02-19T12:04:47.841Z,102629.69
2023-02-19T12:07:34.281Z,102642.97
2023-02-19T12:10:28.361Z,102636.09
2023-02-19T12:13:12.867Z,102636.94
2023-02-19T12:16:02.846Z,102645.75
2023-02-19T12:18:29.244Z,102654.38
2023-02-19T12:21:17.296Z,102646.44
2023-02-19T12:23:49.705Z,102650.03
2023-02-19T12:26:29.057Z,102649.13
2023-02-19T12:29:10.795Z,102645.72
2023-02-19T12:31:43.179Z,102648.47
2023-02-19T12:34:28.968Z,102658.09
2023-02-19T12:37:14.141Z,102659.91
2023-02-19T12:40:21.543Z,102667.00
2023-02-19T12:43:09.445Z,102674.81
2023-02-19T12:45:47.025Z,102668.69
2023-02-19T12:48:13.363Z,102671.19
2023-02-19T12:50:40.778Z,102677.34
2023-02-19T12:53:32.663Z,102682.56
2023-02-19T12:56:01.163Z,102683.50
2023-02-19T12:58:39.074Z,102696.59
2023-02-19T13:01:07.920Z,102700.09
2023-02-19T13:04:11.112Z,102707.13
2023-02-19T13:06:45.128Z,102701.91
2023-02-19T13:09:15.253Z,102695.94
2023-02-19T13:11:50.492Z,102701.19
2023-02-19T13:14:41.513Z,102714.28
2023-02-19T13:17:21.248Z,102720.28
2023-02-19T13:19:51.903Z,102730.75
2023-02-19T13:22:52.821Z,102736.06
2023-02-19T13:25:21.048Z,102734.47
2023-02-19T13:28:11.593Z,102742.31
2023-02-19T13:31:07.886Z,102745.94
2023-02-19T13:33:45.935Z,102738.81
2023-02-19T13:36:16.361Z,102737.06
2023-02-19T13:38:48.512Z,102744.88
2023-02-19T13:41:33.634Z,102743.94
2023-02-19T13:44:05.936Z,102746.53
2023-02-19T13:46:40.456Z,102752.72
2023-02-19T13:49:41.069Z,102760.66
2023-02-19T13:52:28.708Z,102762.38
2023-02-19T13:55:32.492Z,102761.44
2023-02-19T13:58:33.068Z,102763.03
2023-02-19T14:01:07.983Z,102763.16
2023-02-19T14:03:37.090Z,102761.31
2023-02-19T14:06:06.743Z,102762.13
2023-02-19T14:08:56.823Z,102770.88
2023-02-19T14:11:41.310Z,102762.91
2023-02-19T14:14:25.075Z,102769.97
2023-02-19T14:17:17.556Z,102766.50
2023-02-19T14:19:50.082Z,102756.72
2023-02-19T14:22:47.793Z,102751.38
2023-02-19T14:25:33.171Z,102761.06
2023-02-19T14:28:17.935Z,102754.19
2023-02-19T14:30:47.361Z,102754.13
2023-02-19T14:33:17.286Z,102742.84
2023-02-19T14:35:46.770Z,102737.63
2023-02-19T14:38:21.355Z,102734.09
2023-02-19T14:40:50.095Z,102733.09
2023-02-19T14:43:19.740Z,102726.19
2023-02-19T14:45:54.948Z,102718.31
2023-02-19T14:48:49.142Z,102718.31
2023-02-19T14:51:27.204Z,102714.00
2023-02-19T14:53:55.318Z,102713.13
2023-02-19T14:56:33.924Z,102719.09
2023-02-19T14:59:17.604Z,102716.38
2023-02-19T15:01:44.061Z,102705.09
2023-02-19T15:04:22.763Z,102701.66
2023-02-19T15:06:49.731Z,102697.38
2023-02-19T15:09:16.577Z,102697.38
2023-02-19T15:11:43.628Z,102693.81
2023-02-19T15:14:20.604Z,102703.38
2023-02-19T15:16:47.711Z,102719.06
2023-02-19T15:19:17.089Z,102726.91
2023-02-19T15:21:47.798Z,102736.63
2023-02-19T15:24:16.885Z,102734.88
2023-02-19T15:26:48.445Z,102750.66
2023-02-19T15:29:17.751Z,102761.19
2023-02-19T15:31:46.288Z,102756.91
2023-02-19T15:34:21.525Z,102765.66
2023-02-19T15:36:51.550Z,102767.44
2023-02-19T15:39:24.177Z,102771.69
2023-02-19T15:41:59.928Z,102780.44
2023-02-19T15:44:47.140Z,102772.69
2023-02-19T15:47:33.856Z,102772.72
2023-02-19T15:50:26.170Z,102779.78
2023-02-19T15:53:04.673Z,102768.44
2023-02-19T15:55:40.711Z,102753.66
2023-02-19T15:58:23.413Z,102760.53
2023-02-19T16:00:57.219Z,102769.22
2023-02-19T16:03:26.010Z,102775.34
2023-02-19T16:05:59.271Z,102773.50
2023-02-19T16:08:30.937Z,102781.34
2023-02-19T16:11:00.291Z,102797.97
2023-02-19T16:13:29.422Z,102797.06
2023-02-19T16:16:04.000Z,102791.78
2023-02-19T16:18:31.005Z,102810.22
2023-02-19T16:20:57.650Z,102812.88
2023-02-19T16:23:25.308Z,102813.78
2023-02-19T16:26:00.244Z,102810.31
2023-02-19T16:28:29.683Z,102814.66
2023-02-19T16:30:59.992Z,102812.16
2023-02-19T16:33:38.160Z,102809.56
2023-02-19T16:36:34.256Z,102816.53
2023-02-19T16:39:09.692Z,102811.31
2023-02-19T16:41:45.089Z,102807.84
2023-02-19T16:44:20.445Z,102816.53
2023-02-19T16:46:51.229Z,102812.22
2023-02-19T16:49:18.230Z,102814.88
2023-02-19T16:51:46.068Z,102825.41
2023-02-19T16:54:12.785Z,102828.91
2023-02-19T16:56:39.500Z,102828.94
2023-02-19T16:59:07.493Z,102828.94
2023-02-19T17:01:35.098Z,102821.97
2023-02-19T17:04:05.744Z,102816.72
2023-02-19T17:06:37.655Z,102806.25
2023-02-19T17:09:06.373Z,102800.97
2023-02-19T17:11:32.776Z,102807.09
2023-02-19T17:13:59.247Z,102814.06
2023-02-19T17:16:29.126Z,102814.94
2023-02-19T17:18:55.762Z,102815.06
2023-02-19T17:21:25.091Z,102818.50
2023-02-19T17:23:52.102Z,102822.03
2023-02-19T17:26:30.242Z,102824.59
2023-02-19T17:28:57.738Z,102834.16
2023-02-19T17:31:24.177Z,102836.84
2023-02-19T17:33:51.744Z,102849.94
2023-02-19T17:36:22.602Z,102837.75
2023-02-19T17:38:49.109Z,102840.31
2023-02-19T17:41:15.466Z,102847.28
2023-02-19T17:43:41.833Z,102849.03
2023-02-19T17:46:17.304Z,102848.16
2023-02-19T17:48:44.089Z,102860.41
2023-02-19T17:51:11.204Z,102863.91
2023-02-19T17:53:37.901Z,102874.38
2023-02-19T17:56:04.684Z,102865.63
2023-02-19T17:58:31.119Z,102869.13
2023-02-19T18:00:57.613Z,102868.28
2023-02-19T18:03:24.092Z,102866.53
2023-02-19T18:05:50.478Z,102869.13
2023-02-19T18:08:16.849Z,102866.53
2023-02-19T18:10:43.337Z,102856.94
2023-02-19T18:13:10.444Z,102849.09
2023-02-19T18:15:36.839Z,102840.31
2023-02-19T18:18:04.997Z,102847.28
2023-02-19T18:20:31.844Z,102845.53
2023-02-19T18:22:58.279Z,102842.94
2023-02-19T18:25:25.020Z,102845.53
2023-02-19T18:27:51.451Z,102834.19
2023-02-19T18:30:19.664Z,102832.50
2023-02-19T18:32:49.759Z,102839.63
2023-02-19T18:35:17.997Z,102840.53
2023-02-19T18:37:44.690Z,102835.31
2023-02-19T18:40:11.654Z,102839.69
2023-02-19T18:42:38.978Z,102844.94
2023-02-19T18:45:05.629Z,102844.84
2023-02-19T18:47:32.078Z,102837.94
2023-02-19T18:49:59.466Z,102843.13
2023-02-19T18:52:27.013Z,102841.47
2023-02-19T18:54:57.181Z,102840.56
2023-02-19T18:57:24.925Z,102840.53
2023-02-19T18:59:51.577Z,102843.13
2023-02-19T19:02:18.931Z,102838.81
2023-02-19T19:04:52.781Z,102838.81
2023-02-19T19:07:20.351Z,102834.53
2023-02-19T19:09:47.499Z,102840.66
2023-02-19T19:12:14.567Z,102840.72
2023-02-19T19:14:40.991Z,102844.22
2023-02-19T19:17:07.442Z,102851.19
2023-02-19T19:19:33.805Z,102859.03
2023-02-19T19:22:00.185Z,102853.88
2023-02-19T19:24:26.617Z,102853.88
2023-02-19T19:26:53.993Z,102861.75
2023-02-19T19:29:22.019Z,102863.50
2023-02-19T19:31:49.532Z,102872.25
2023-02-19T19:34:16.409Z,102867.94
2023-02-19T19:36:43.210Z,102867.88
2023-02-19T19:39:09.563Z,102871.34
2023-02-19T19:41:36.452Z,102870.53
2023-02-19T19:44:04.917Z,102866.16
2023-02-19T19:46:32.030Z,102865.28
2023-02-19T19:48:58.841Z,102872.31
2023-02-19T19:51:33.852Z,102870.59
2023-02-19T19:54:01.010Z,102864.53
2023-02-19T19:56:27.339Z,102867.19
2023-02-19T19:58:53.678Z,102852.34
2023-02-19T20:01:21.282Z,102847.09
2023-02-19T20:03:48.278Z,102852.31
2023-02-19T20:06:14.660Z,102852.28
2023-02-19T20:08:41.203Z,102851.44
2023-02-19T20:11:07.621Z,102851.47
2023-02-19T20:13:34.480Z,102858.50
2023-02-19T20:16:00.973Z,102858.50
2023-02-19T20:18:27.491Z,102848.84
2023-02-19T20:20:53.868Z,102848.94
2023-02-19T20:23:20.293Z,102845.47
2023-02-19T20:25:46.655Z,102843.75
2023-02-19T20:28:13.081Z,102839.44
2023-02-19T20:30:39.492Z,102841.19
2023-02-19T20:33:05.836Z,102843.81
2023-02-19T20:35:32.393Z,102846.44
2023-02-19T20:37:58.891Z,102842.09
2023-02-19T20:40:27.719Z,102851.66
2023-02-19T20:42:54.351Z,102859.47
2023-02-19T20:45:21.346Z,102848.13
2023-02-19T20:47:47.966Z,102847.25
2023-02-19T20:50:17.085Z,102855.16
2023-02-19T20:52:43.640Z,102845.63
2023-02-19T20:55:10.128Z,102843.03
2023-02-19T20:57:37.313Z,102846.59
2023-02-19T21:00:05.147Z,102852.69
2023-02-19T21:02:31.736Z,102839.59
2023-02-19T21:04:58.634Z,102823.84
2023-02-19T21:07:25.920Z,102829.91
2023-02-19T21:09:52.622Z,102808.19
2023-02-19T21:12:20.691Z,102810.75
2023-02-19T21:14:47.301Z,102802.09
2023-02-19T21:17:13.798Z,102797.75
2023-02-19T21:19:40.514Z,102796.03
2023-02-19T21:22:07.079Z,102806.50
2023-02-19T21:24:33.522Z,102809.16
2023-02-19T21:27:00.169Z,102803.06
2023-02-19T21:29:27.008Z,102806.53
2023-02-19T21:31:55.626Z,102798.69
2023-02-19T21:34:25.665Z,102802.22
2023-02-19T21:36:52.871Z,102813.59
2023-02-19T21:39:21.942Z,102804.88
2023-02-19T21:41:48.655Z,102817.09
2023-02-19T21:44:15.468Z,102831.00
2023-02-19T21:46:41.997Z,102823.19
2023-02-19T21:49:12.879Z,102823.25
2023-02-19T21:51:41.213Z,102820.66
2023-02-19T21:54:08.985Z,102818.09
2023-02-19T21:56:36.481Z,102819.91
2023-02-19T21:59:03.549Z,102821.63
2023-02-19T22:01:38.398Z,102816.41
2023-02-19T22:04:10.204Z,102818.19
2023-02-19T22:06:39.053Z,102810.31
2023-02-19T22:09:06.997Z,102808.56
2023-02-19T22:11:33.399Z,102809.44
2023-02-19T22:13:59.928Z,102804.22
2023-02-19T22:16:26.519Z,102820.75
2023-02-19T22:18:56.142Z,102811.22
2023-02-19T22:21:24.100Z,102809.44
2023-02-19T22:23:52.437Z,102816.41
2023-02-19T22:26:19.042Z,102805.97
2023-02-19T22:28:47.595Z,102806.81
2023-02-19T22:31:19.010Z,102801.63
2023-02-19T22:33:45.807Z,102792.06
2023-02-19T22:36:18.996Z,102790.25
2023-02-19T22:38:45.737Z,102778.91
2023-02-19T22:41:12.244Z,102786.81
2023-02-19T22:43:38.812Z,102788.56
2023-02-19T22:46:10.177Z,102782.44
2023-02-19T22:48:36.633Z,102785.06
2023-02-19T22:51:03.093Z,102778.91
2023-02-19T22:53:29.477Z,102777.22
2023-02-19T22:55:55.880Z,102772.00
2023-02-19T22:58:22.332Z,102763.25
2023-02-19T23:00:48.708Z,102764.97
2023-02-19T23:03:15.072Z,102768.44
2023-02-19T23:05:41.429Z,102758.84
2023-02-19T23:08:07.906Z,102744.06
2023-02-19T23:10:34.325Z,102748.38
2023-02-19T23:13:00.864Z,102745.78
2023-02-19T23:15:27.237Z,102745.78
2023-02-19T23:17:53.589Z,102739.69
2023-02-19T23:20:19.973Z,102748.41
2023-02-19T23:22:46.370Z,102737.94
2023-02-19T23:25:12.963Z,102744.03
2023-02-19T23:27:39.346Z,102757.13
2023-02-19T23:30:06.719Z,102748.41
2023-02-19T23:32:33.288Z,102752.72
2023-02-19T23:34:59.671Z,102764.06
2023-02-19T23:37:26.013Z,102771.00
2023-02-19T23:39:52.372Z,102764.91
2023-02-19T23:42:18.778Z,102764.09
2023-02-19T23:44:48.548Z,102764.97
2023-02-19T23:47:15.122Z,102761.47
2023-02-19T23:49:42.026Z,102761.47
2023-02-19T23:52:08.436Z,102740.59
2023-02-19T23:54:35.064Z,102729.28
2023-02-19T23:57:01.536Z,102724.06
2023-02-19T23:59:28.000Z,102724.91
